Aumsville, Oregon
Current Conditions -  °F | °C
As of 1:22 PM on Friday 28 Nov 2014 (Local Time) from KSLE Reporting Station
Broken Clouds Broken Clouds  
Wind Chill: 55°   Ceiling: 7000
Heat Index: 55°   Visibility: 10mi
Dew Point: 51°   Wind: 23mph
Humidity: 86%   Direction: 190°S
Pressure: 29.53"   Gusts: 32mph
Location:  44.84°N, 122.87°W
Report Text: KSLE 282122Z 19020G28KT 10SM SCT009 SCT043 BKN070 13/11 A2953 RMK AO2 PK WND 20032/2106 RAE10 P0003 T01280106
Loading
Personal Weather Stations






























Interactive Weather Map New forecast layout! Learn more

10-Day Weather Forecast

Advertisements
Track Severe Weather on mobile